Map

Track Data

SID SEASON NUMBER BASIN SUBBASIN NAME ISO_TIME NATURE LAT LON WMO_WIND WMO_PRES WMO_AGENCY TRACK_TYPE DIST2LAND LANDFALL IFLAG USA_AGENCY USA_ATCF_ID USA_LAT USA_LON USA_RECORD USA_STATUS USA_WIND USA_PRES USA_SSHS USA_R34_NE USA_R34_SE USA_R34_SW USA_R34_NW USA_R50_NE USA_R50_SE USA_R50_SW USA_R50_NW USA_R64_NE USA_R64_SE USA_R64_SW USA_R64_NW USA_POCI USA_ROCI USA_RMW USA_EYE TOKYO_LAT TOKYO_LON TOKYO_GRADE TOKYO_WIND TOKYO_PRES TOKYO_R50_DIR TOKYO_R50_LONG TOKYO_R50_SHORT TOKYO_R30_DIR TOKYO_R30_LONG TOKYO_R30_SHORT TOKYO_LAND CMA_LAT CMA_LON CMA_CAT CMA_WIND CMA_PRES HKO_LAT HKO_LON HKO_CAT HKO_WIND HKO_PRES NEWDELHI_LAT NEWDELHI_LON NEWDELHI_GRADE NEWDELHI_WIND NEWDELHI_PRES NEWDELHI_CI NEWDELHI_DP NEWDELHI_POCI REUNION_LAT REUNION_LON REUNION_TYPE REUNION_WIND REUNION_PRES REUNION_TNUM REUNION_CI REUNION_RMW REUNION_R34_NE REUNION_R34_SE REUNION_R34_SW REUNION_R34_NW REUNION_R50_NE REUNION_R50_SE REUNION_R50_SW REUNION_R50_NW REUNION_R64_NE REUNION_R64_SE REUNION_R64_SW REUNION_R64_NW BOM_LAT BOM_LON BOM_TYPE BOM_WIND BOM_PRES BOM_TNUM BOM_CI BOM_RMW BOM_R34_NE BOM_R34_SE BOM_R34_SW BOM_R34_NW BOM_R50_NE BOM_R50_SE BOM_R50_SW BOM_R50_NW BOM_R64_NE BOM_R64_SE BOM_R64_SW BOM_R64_NW BOM_ROCI BOM_POCI BOM_EYE BOM_POS_METHOD BOM_PRES_METHOD NADI_LAT NADI_LON NADI_CAT NADI_WIND NADI_PRES WELLINGTON_LAT WELLINGTON_LON WELLINGTON_WIND WELLINGTON_PRES DS824_LAT DS824_LON DS824_STAGE DS824_WIND DS824_PRES TD9636_LAT TD9636_LON TD9636_STAGE TD9636_WIND TD9636_PRES TD9635_LAT TD9635_LON TD9635_WIND TD9635_PRES TD9635_ROCI NEUMANN_LAT NEUMANN_LON NEUMANN_CLASS NEUMANN_WIND NEUMANN_PRES MLC_LAT MLC_LON MLC_CLASS MLC_WIND MLC_PRES USA_GUST BOM_GUST BOM_GUST_PER REUNION_GUST REUNION_GUST_PER USA_SEAHGT USA_SEARAD_NE USA_SEARAD_SE USA_SEARAD_SW USA_SEARAD_NW STORM_SPEED STORM_DIR
1972225N22090 1972 72 NI BB NOT_NAMED 1972-08-12 03:00:00 NR 21.6000 89.5000 main 15 0 __________O___ -1 21.6000 89.5000 1 8 295
1972225N22090 1972 72 NI BB NOT_NAMED 1972-08-12 06:00:00 TS 21.7752 89.0981 main 0 0 O________OP___ jtwc_io IO071972 21.8000 89.1000 -1 21.8000 89.1000 TC 25 21.7504 89.0961 1 8 291
1972225N22090 1972 72 NI BB NOT_NAMED 1972-08-12 09:00:00 TS 21.9017 88.6630 main 10 0 P________PP___ IO071972 21.9103 88.6477 -1 21.9103 88.6477 TC 25 21.8903 88.6834 1 8 286
1972225N22090 1972 72 NI BB NOT_NAMED 1972-08-12 12:00:00 TS 22.0040 88.2216 main 0 0 O________OP___ jtwc_io IO071972 22.0000 88.2000 -1 22.0000 88.2000 TC 25 22.0101 88.2540 1 8 282
1972225N22090 1972 72 NI BB NOT_NAMED 1972-08-12 15:00:00 TS 22.0715 87.7716 main 0 0 P________PO___ IO071972 22.0573 87.7574 -1 22.0573 87.7574 TC 25 22.1000 87.8000 1 9 278
1972225N22090 1972 72 NI BB NOT_NAMED 1972-08-12 18:00:00 TS 22.1180 87.3062 main 0 0 O________OP___ jtwc_io IO071972 22.1000 87.3000 -1 22.1000 87.3000 TC 25 22.1539 87.3186 1 9 276
1972225N22090 1972 72 NI BB NOT_NAMED 1972-08-12 21:00:00 TS 22.1651 86.8040 main 0 0 P________PP___ IO071972 22.1575 86.7926 -1 22.1575 86.7926 TC 25 22.1803 86.8270 1 9 275
1972225N22090 1972 72 NI BB NOT_NAMED 1972-08-13 00:00:00 TS 22.1972 86.3156 main 0 0 O________OP___ jtwc_io IO071972 22.2000 86.3000 -1 22.2000 86.3000 TC 25 22.1915 86.3468 1 9 272
1972225N22090 1972 72 NI BB NOT_NAMED 1972-08-13 03:00:00 TS 22.1999 85.8849 main 0 0 P________PO___ IO071972 22.1998 85.8774 -1 22.1998 85.8774 TC 25 22.2000 85.9000 1 8 271
1972225N22090 1972 72 NI BB NOT_NAMED 1972-08-13 06:00:00 TS 22.2068 85.5033 main 0 0 O________OP___ jtwc_io IO071972 22.2000 85.5000 -1 22.2000 85.5000 TC 25 22.2203 85.5099 1 7 274
1972225N22090 1972 72 NI BB NOT_NAMED 1972-08-13 09:00:00 TS 22.2472 85.1417 main 0 0 P________PP___ IO071972 22.2499 85.1351 -1 22.2499 85.1351 TC 25 22.2418 85.1549 1 6 277
1972225N22090 1972 72 NI BB NOT_NAMED 1972-08-13 12:00:00 TS 22.2891 84.8075 main 0 0 O________OP___ jtwc_io IO071972 22.3000 84.8000 -1 22.3000 84.8000 TC 25 22.2673 84.8224 1 6 275
1972225N22090 1972 72 NI BB NOT_NAMED 1972-08-13 15:00:00 TS 22.2999 84.4999 main 0 0 P________PO___ IO071972 22.2999 84.4999 -1 22.2999 84.4999 TC 25 22.3000 84.5000 1 6 272
1972225N22090 1972 72 NI BB NOT_NAMED 1972-08-13 18:00:00 TS 22.3129 84.1865 main 0 0 O________OP___ jtwc_io IO071972 22.3000 84.2000 -1 22.3000 84.2000 TC 25 22.3386 84.1597 1 6 275
1972225N22090 1972 72 NI BB NOT_NAMED 1972-08-13 21:00:00 TS 22.3516 83.8425 main 0 0 P________PP___ IO071972 22.3350 83.8500 -1 22.3350 83.8500 TC 25 22.3848 83.8275 1 6 279
1972225N22090 1972 72 NI BB NOT_NAMED 1972-08-14 00:00:00 TS 22.4129 83.5022 main 0 0 O________OP___ jtwc_io IO071972 22.4000 83.5000 -1 22.4000 83.5000 TC 25 22.4386 83.5065 1 6 284
1972225N22090 1972 72 NI BB NOT_NAMED 1972-08-14 03:00:00 TS 22.5000 83.1900 main 0 0 P________PO___ IO071972 22.4999 83.1851 -1 22.4999 83.1851 TC 25 22.5000 83.2000 1 6 287
1972225N22090 1972 72 NI BB NOT_NAMED 1972-08-14 06:00:00 TS 22.5851 82.9048 main 0 0 O________OP___ jtwc_io IO071972 22.6000 82.9000 -1 22.6000 82.9000 TC 25 22.5553 82.9144 1 5 286
1972225N22090 1972 72 NI BB NOT_NAMED 1972-08-14 09:00:00 TS 22.6398 82.6473 main 0 0 P________PP___ IO071972 22.6499 82.6499 -1 22.6499 82.6499 TC 25 22.6196 82.6421 1 5 284
1972225N22090 1972 72 NI BB NOT_NAMED 1972-08-14 12:00:00 TS 22.6997 82.3912 main 0 0 O________OP___ jtwc_io IO071972 22.7000 82.4000 -1 22.7000 82.4000 TC 25 22.6991 82.3737 1 5 287
1972225N22090 1972 72 NI BB NOT_NAMED 1972-08-14 15:00:00 TS 22.7900 82.1050 main 0 0 P________PO___ IO071972 22.7850 82.1075 -1 22.7850 82.1075 TC 25 22.8000 82.1000 1 6 291
1972225N22090 1972 72 NI BB NOT_NAMED 1972-08-14 18:00:00 TS 22.9094 81.8024 main 0 0 O________OP___ jtwc_io IO071972 22.9000 81.8000 -1 22.9000 81.8000 TC 25 22.9283 81.8072 1 6 295
1972225N22090 1972 72 NI BB NOT_NAMED 1972-08-14 21:00:00 TS 23.0541 81.5025 main 0 0 P________PP___ IO071972 23.0424 81.5000 -1 23.0424 81.5000 TC 25 23.0774 81.5076 1 6 299
1972225N22090 1972 72 NI BB NOT_NAMED 1972-08-15 00:00:00 TS 23.2126 81.2013 main 0 0 O________OP___ jtwc_io IO071972 23.2000 81.2000 -1 23.2000 81.2000 TC 25 23.2377 81.2041 1 6 299
1972225N22090 1972 72 NI BB NOT_NAMED 1972-08-15 03:00:00 TS 23.3666 80.9000 main 0 0 P________PO___ IO071972 23.3499 80.8999 -1 23.3499 80.8999 TC 25 23.4000 80.9000 1 6 299
1972225N22090 1972 72 NI BB NOT_NAMED 1972-08-15 06:00:00 TS 23.5235 80.5893 main 0 0 O________OP___ jtwc_io IO071972 23.5000 80.6000 -1 23.5000 80.6000 TC 25 23.5705 80.5678 1 7 299
1972225N22090 1972 72 NI BB NOT_NAMED 1972-08-15 09:00:00 TS 23.6793 80.2751 main 0 0 P________PP___ IO071972 23.6500 80.2925 -1 23.6500 80.2925 TC 25 23.7378 80.2404 1 6 299
1972225N22090 1972 72 NI BB NOT_NAMED 1972-08-15 12:00:00 TS 23.8287 79.9809 main 0 0 O________OP___ jtwc_io IO071972 23.8000 80.0000 -1 23.8000 80.0000 TC 25 23.8862 79.9428 1 6 300
1972225N22090 1972 72 NI BB NOT_NAMED 1972-08-15 15:00:00 TS 23.9817 79.7084 main 0 0 P________PO___ IO071972 23.9725 79.7126 -1 23.9725 79.7126 TC 25 24.0000 79.7000 1 5 302
1972225N22090 1972 72 NI BB NOT_NAMED 1972-08-15 18:00:00 TS 24.0922 79.5181 main 0 0 O________OP___ jtwc_io IO071972 24.1000 79.5000 -1 24.1000 79.5000 TC 25 24.0768 79.5544 1 3 301
1972225N22090 1972 72 NI BB NOT_NAMED 1972-08-15 21:00:00 TS 24.1256 79.4440 main 0 0 P________PP___ IO071972 24.1299 79.4349 -1 24.1299 79.4349 TC 25 24.1170 79.4622 1 1 278
1972225N22090 1972 72 NI BB NOT_NAMED 1972-08-16 00:00:00 TS 24.1079 79.3963 main 0 0 O________OP___ jtwc_io IO071972 24.1000 79.4000 -1 24.1000 79.4000 TC 25 24.1237 79.3889 1 2 250
1972225N22090 1972 72 NI BB NOT_NAMED 1972-08-16 03:00:00 TS 24.0717 79.2817 main 0 0 P________PO___ IO071972 24.0575 79.2725 -1 24.0575 79.2725 TC 25 24.1000 79.3000 1 3 251
1972225N22090 1972 72 NI BB NOT_NAMED 1972-08-16 06:00:00 TS 24.0207 79.1114 main 0 0 O________OP___ jtwc_io IO071972 24.0000 79.1000 -1 24.0000 79.1000 TC 25 24.0620 79.1343 1 4 253
1972225N22090 1972 72 NI BB NOT_NAMED 1972-08-16 09:00:00 TS 23.9701 78.9116 main 0 0 P________PP___ IO071972 23.9575 78.8925 -1 23.9575 78.8925 TC 25 23.9952 78.9498 1 4 252
1972225N22090 1972 72 NI BB NOT_NAMED 1972-08-16 12:00:00 TS 23.9019 78.7218 main 0 0 O________OP___ jtwc_io IO071972 23.9000 78.7000 -1 23.9000 78.7000 TC 25 23.9058 78.7655 1 3 241
1972225N22090 1972 72 NI BB NOT_NAMED 1972-08-16 15:00:00 TS 23.8100 78.5900 main 0 0 P________PO___ IO071972 23.8150 78.5850 -1 23.8150 78.5850 TC 25 23.8000 78.6000 1 3 225
1972225N22090 1972 72 NI BB NOT_NAMED 1972-08-16 18:00:00 TS 23.6910 78.4914 main 0 0 O________OP___ jtwc_io IO071972 23.7000 78.5000 -1 23.7000 78.5000 TC 25 23.6730 78.4743 1 3 214
1972225N22090 1972 72 NI BB NOT_NAMED 1972-08-16 21:00:00 TS 23.5400 78.3900 main 0 0 P________PP___ IO071972 23.5425 78.4000 -1 23.5425 78.4000 TC 25 23.5349 78.3699 1 3 212
1972225N22090 1972 72 NI BB NOT_NAMED 1972-08-17 00:00:00 TS 23.4014 78.2935 main 0 0 O________OP___ jtwc_io IO071972 23.4000 78.3000 -1 23.4000 78.3000 TC 25 23.4043 78.2806 1 3 219
1972225N22090 1972 72 NI BB NOT_NAMED 1972-08-17 03:00:00 TS 23.3233 78.1950 main 0 0 P________PO___ IO071972 23.3350 78.1925 -1 23.3350 78.1925 TC 25 23.3000 78.2000 1 2 235
1972225N22090 1972 72 NI BB NOT_NAMED 1972-08-17 06:00:00 TS 23.2821 78.1060 main 0 0 O________OP___ jtwc_io IO071972 23.3000 78.1000 -1 23.3000 78.1000 TC 25 23.2462 78.1179 1 2 237
1972225N22090 1972 72 NI BB NOT_NAMED 1972-08-17 09:00:00 TS 23.2350 78.0476 main 0 0 P________PP___ IO071972 23.2425 78.0500 -1 23.2425 78.0500 TC 25 23.2200 78.0426 1 1 233
1972225N22090 1972 72 NI AS NOT_NAMED 1972-08-17 12:00:00 TS 23.2029 77.9903 main 0 0 O________OP___ jtwc_io IO071972 23.2000 78.0000 -1 23.2000 78.0000 TC 25 23.2087 77.9710 1 1 256
1972225N22090 1972 72 NI AS NOT_NAMED 1972-08-17 15:00:00 TS 23.2000 77.9000 main 0 0 P________PO___ IO071972 23.2000 77.9000 -1 23.2000 77.9000 TC 25 23.2000 77.9000 1 2 263
1972225N22090 1972 72 NI AS NOT_NAMED 1972-08-17 18:00:00 TS 23.1849 77.8164 main 0 0 O________OP___ jtwc_io IO071972 23.2000 77.8000 -1 23.2000 77.8000 TC 25 23.1546 77.8492 1 1 243
1972225N22090 1972 72 NI AS NOT_NAMED 1972-08-17 21:00:00 TS 23.1374 77.7699 main 0 0 P________PP___ IO071972 23.1500 77.7575 -1 23.1500 77.7575 TC 25 23.1123 77.7948 1 1 230
1972225N22090 1972 72 NI AS NOT_NAMED 1972-08-18 00:00:00 TS 23.0963 77.7060 main 0 0 O________OP___ jtwc_io IO071972 23.1000 77.7000 -1 23.1000 77.7000 TC 25 23.0889 77.7179 1 2 253
1972225N22090 1972 72 NI AS NOT_NAMED 1972-08-18 03:00:00 TS 23.0850 77.5866 main 0 0 P________PO___ IO071972 23.0775 77.5799 -1 23.0775 77.5799 TC 25 23.1000 77.6000 1 3 274
1972225N22090 1972 72 NI AS NOT_NAMED 1972-08-18 06:00:00 TS 23.1147 77.4020 main 0 0 O________OP___ jtwc_io IO071972 23.1000 77.4000 -1 23.1000 77.4000 TC 25 23.1440 77.4060 1 4 285
1972225N22090 1972 72 NI AS NOT_NAMED 1972-08-18 09:00:00 TS 23.1885 77.1625 main 0 0 P________PP___ IO071972 23.1701 77.1575 -1 23.1701 77.1575 TC 25 23.2253 77.1726 1 5 294
1972225N22090 1972 72 NI AS NOT_NAMED 1972-08-18 12:00:00 TS 23.3147 76.9093 main 0 0 O________OP___ jtwc_io IO071972 23.3000 76.9000 -1 23.3000 76.9000 TC 25 23.3440 76.9278 1 5 305
1972225N22090 1972 72 NI AS NOT_NAMED 1972-08-18 15:00:00 TS 23.4900 76.6850 main 0 0 P________PO___ IO071972 23.4850 76.6776 -1 23.4850 76.6776 TC 25 23.5000 76.7000 1 5 316
1972225N22090 1972 72 NI AS NOT_NAMED 1972-08-18 18:00:00 TS 23.6922 76.5108 main 0 0 O________OP___ jtwc_io IO071972 23.7000 76.5000 -1 23.7000 76.5000 TC 25 23.6767 76.5323 1 5 326
1972225N22090 1972 72 NI AS NOT_NAMED 1972-08-18 21:00:00 TS 23.8865 76.3947 main 0 0 P________PP___ IO071972 23.8849 76.3998 -1 23.8849 76.3998 TC 25 23.8898 76.3846 1 5 333
1972225N22090 1972 72 NI AS NOT_NAMED 1972-08-19 00:00:00 TS 24.1110 76.2816 main 0 0 O________OP___ jtwc_io IO071972 24.1000 76.3000 -1 24.1000 76.3000 TC 25 24.1330 76.2447 1 6 332
1972225N22090 1972 72 NI AS NOT_NAMED 1972-08-19 03:00:00 TS 24.3900 76.1051 main 0 0 P________PO___ IO071972 24.3850 76.1076 -1 24.3850 76.1076 TC 25 24.4000 76.1000 1 7 331
1972225N22090 1972 72 NI AS NOT_NAMED 1972-08-19 06:00:00 TS 24.7008 75.9215 main 0 0 O________OP___ jtwc_io IO071972 24.7000 75.9000 -1 24.7000 75.9000 TC 25 24.7024 75.9645 1 7 334
1972225N22090 1972 72 NI AS NOT_NAMED 1972-08-19 09:00:00 TS 25.0122 75.7773 main 0 0 P________PP___ IO071972 25.0074 75.7573 -1 25.0074 75.7573 TC 25 25.0219 75.8172 1 7 335
1972225N22090 1972 72 NI AS NOT_NAMED 1972-08-19 12:00:00 TS 25.3101 75.6121 main 0 0 O________OP___ jtwc_io IO071972 25.3000 75.6000 -1 25.3000 75.6000 TC 25 25.3304 75.6364 1 7 328
1972225N22090 1972 72 NI AS NOT_NAMED 1972-08-19 15:00:00 TS 25.5816 75.3867 main 0 0 P________PO___ IO071972 25.5724 75.3800 -1 25.5724 75.3800 TC 25 25.6000 75.4000 1 7 317
1972225N22090 1972 72 NI AS NOT_NAMED 1972-08-19 18:00:00 TS 25.8040 75.0972 main 0 0 O________OP___ jtwc_io IO071972 25.8000 75.1000 -1 25.8000 75.1000 TC 25 25.8099 75.0931 1 7 304
1972225N22090 1972 72 NI AS NOT_NAMED 1972-08-19 21:00:00 TS 25.9682 74.7492 main 0 0 P________PP___ IO071972 25.9677 74.7651 -1 25.9677 74.7651 TC 25 25.9689 74.7280 1 7 294
1972225N22090 1972 72 NI AS NOT_NAMED 1972-08-20 00:00:00 TS 26.0967 74.3619 main 0 0 O________OP___ jtwc_io IO071972 26.1000 74.4000 -1 26.1000 74.4000 TC 25 26.0934 74.3239 1 8 287
1972225N22090 1972 72 NI AS NOT_NAMED 1972-08-20 03:00:00 NR 26.2000 73.9000 main 0 __________O___ IO071972 -1 TC 26.2000 73.9000 1 9 284

About IBTrACS Database

This database is a web-friendly format of International Best Track Archive for Climate Stewardship (IBTrACS), a global best track data archive curated by NOAA dating back to 1842.

Updated: 2021-12-03